createdAt,value
2019-02-11T00:05:12.390Z,32.78
2019-02-11T00:11:10.036Z,30.50
2019-02-11T00:17:05.826Z,30.68
2019-02-11T00:23:14.465Z,31.42
2019-02-11T00:29:10.566Z,34.13
2019-02-11T00:35:20.715Z,33.42
2019-02-11T00:41:16.981Z,31.20
2019-02-11T00:47:14.758Z,28.80
2019-02-11T00:53:01.225Z,31.42
2019-02-11T00:58:56.787Z,30.70
2019-02-11T01:04:52.197Z,29.63
2019-02-11T01:10:47.542Z,28.83
2019-02-11T01:16:54.349Z,29.95
2019-02-11T01:22:49.841Z,31.70
2019-02-11T01:28:47.617Z,33.95
2019-02-11T01:34:44.743Z,31.90
2019-02-11T01:40:45.556Z,33.75
2019-02-11T01:46:48.558Z,32.45
2019-02-11T01:52:49.691Z,37.03
2019-02-11T01:58:47.034Z,40.60
2019-02-11T02:04:32.293Z,41.40
2019-02-11T02:10:30.208Z,42.20
2019-02-11T02:16:39.934Z,41.18
2019-02-11T02:22:38.969Z,43.30
2019-02-11T02:28:36.133Z,43.78
2019-02-11T02:34:35.298Z,39.55
2019-02-11T02:40:32.843Z,43.65
2019-02-11T02:46:31.747Z,41.40
2019-02-11T02:52:27.708Z,39.78
2019-02-11T02:58:25.473Z,39.40
2019-02-11T03:04:24.941Z,39.55
2019-02-11T03:10:35.935Z,40.75
2019-02-11T03:16:33.437Z,41.42
2019-02-11T03:22:42.118Z,45.00
2019-02-11T03:28:26.290Z,45.33
2019-02-11T03:34:25.536Z,44.30
2019-02-11T03:40:10.008Z,46.48
2019-02-11T03:46:18.902Z,47.23
2019-02-11T03:52:15.699Z,48.55
2019-02-11T03:58:01.873Z,49.30
2019-02-11T04:03:58.652Z,47.83
2019-02-11T04:09:56.151Z,49.27
2019-02-11T04:15:53.735Z,47.50
2019-02-11T04:22:00.150Z,49.40
2019-02-11T04:27:44.939Z,49.00
2019-02-11T04:33:41.044Z,49.45
2019-02-11T04:39:38.618Z,48.20
2019-02-11T04:45:35.130Z,49.03
2019-02-11T04:51:47.079Z,53.15
2019-02-11T04:57:45.350Z,52.53
2019-02-11T05:03:42.168Z,52.65
2019-02-11T05:09:38.618Z,64.65
2019-02-11T05:12:27.322Z,77.70
2019-02-11T05:18:11.734Z,58.98
2019-02-11T05:24:10.705Z,66.17
2019-02-11T05:30:10.701Z,64.45
2019-02-11T05:36:09.439Z,69.12
2019-02-11T05:42:04.660Z,74.35
2019-02-11T05:48:00.293Z,70.52
2019-02-11T05:54:00.801Z,63.80
2019-02-11T05:59:47.225Z,61.08
2019-02-11T06:05:29.590Z,68.33
2019-02-11T06:11:49.591Z,66.80
2019-02-11T06:17:37.804Z,99.28
2019-02-11T06:23:36.681Z,69.10
2019-02-11T06:29:47.230Z,69.50
2019-02-11T06:35:38.423Z,63.02
2019-02-11T06:41:47.063Z,61.75
2019-02-11T06:47:43.775Z,60.20
2019-02-11T06:53:54.473Z,62.83
2019-02-11T06:59:51.095Z,65.80
2019-02-11T07:05:37.307Z,64.90
2019-02-11T07:11:36.963Z,61.35
2019-02-11T07:17:23.139Z,63.25
2019-02-11T07:23:21.079Z,69.35
2019-02-11T07:29:17.804Z,81.10
2019-02-11T07:35:14.915Z,88.42
2019-02-11T07:41:49.522Z,100.05
2019-02-11T07:47:47.097Z,75.00
2019-02-11T07:54:08.352Z,63.13
2019-02-11T08:00:04.694Z,56.75
2019-02-11T08:06:14.667Z,58.63
2019-02-11T08:12:12.672Z,81.92
2019-02-11T08:21:57.931Z,85.77
2019-02-11T08:27:55.411Z,75.37
2019-02-11T08:33:53.114Z,71.35
2019-02-11T08:39:51.295Z,58.60
2019-02-11T08:45:47.832Z,53.45
2019-02-11T08:51:55.684Z,52.85
2019-02-11T08:57:58.058Z,52.77
2019-02-11T09:03:54.902Z,54.47
2019-02-11T09:09:29.972Z,52.05
2019-02-11T09:15:26.752Z,52.53
2019-02-11T09:21:37.484Z,48.50
2019-02-11T09:27:33.633Z,49.10
2019-02-11T09:33:40.262Z,40.60
2019-02-11T09:39:24.093Z,46.30
2019-02-11T09:45:36.360Z,38.25
2019-02-11T09:51:36.753Z,39.55
2019-02-11T09:57:58.218Z,38.55
2019-02-11T10:03:45.143Z,37.00
2019-02-11T10:09:29.217Z,39.00
2019-02-11T10:15:39.470Z,38.53
2019-02-11T10:21:38.970Z,39.95
2019-02-11T10:27:36.314Z,42.00
2019-02-11T10:33:43.956Z,39.42
2019-02-11T10:39:40.690Z,37.28
2019-02-11T10:45:38.873Z,37.08
2019-02-11T10:51:34.601Z,35.30
2019-02-11T10:57:35.210Z,34.95
2019-02-11T11:03:18.884Z,39.63
2019-02-11T11:09:19.782Z,37.93
2019-02-11T11:15:17.649Z,38.38
2019-02-11T11:21:16.180Z,40.38
2019-02-11T11:27:15.855Z,41.90
2019-02-11T11:33:26.092Z,36.40
2019-02-11T11:39:23.240Z,37.42
2019-02-11T11:45:22.751Z,43.83
2019-02-11T11:51:19.606Z,39.70
2019-02-11T11:57:19.293Z,40.63
2019-02-11T12:03:11.915Z,35.58
2019-02-11T12:09:09.881Z,36.95
2019-02-11T12:15:09.176Z,37.48
2019-02-11T12:21:06.743Z,38.08
2019-02-11T12:27:15.402Z,39.35
2019-02-11T12:33:11.336Z,37.88
2019-02-11T12:39:15.070Z,36.60
2019-02-11T12:45:18.794Z,36.58
2019-02-11T12:51:17.942Z,33.92
2019-02-11T12:57:16.233Z,34.67
2019-02-11T13:03:15.643Z,32.33
2019-02-11T13:09:00.319Z,33.90
2019-02-11T13:14:56.814Z,34.78
2019-02-11T13:21:05.135Z,33.55
2019-02-11T13:26:41.426Z,34.90
2019-02-11T13:32:41.382Z,33.35
2019-02-11T13:38:53.272Z,31.50
2019-02-11T13:44:50.738Z,30.23
2019-02-11T13:50:41.073Z,27.85
2019-02-11T13:57:05.780Z,25.60
2019-02-11T14:03:04.467Z,21.37
2019-02-11T14:09:04.561Z,19.82
2019-02-11T14:15:21.156Z,29.42
2019-02-11T14:21:08.092Z,29.35
2019-02-11T14:26:53.608Z,31.77
2019-02-11T14:32:54.946Z,32.20
2019-02-11T14:39:02.382Z,32.17
2019-02-11T14:45:03.488Z,28.23
2019-02-11T14:51:01.204Z,29.35
2019-02-11T14:57:01.660Z,27.90
2019-02-11T15:02:45.989Z,26.45
2019-02-11T15:08:41.545Z,24.32
2019-02-11T15:14:50.718Z,28.62
2019-02-11T15:20:28.371Z,25.23
2019-02-11T15:26:11.703Z,24.43
2019-02-11T15:32:10.304Z,33.02
2019-02-11T15:38:09.096Z,32.98
2019-02-11T15:44:08.585Z,33.33
2019-02-11T15:50:19.418Z,32.85
2019-02-11T15:56:23.803Z,34.40
2019-02-11T16:02:34.537Z,27.40
2019-02-11T16:08:32.078Z,24.82
2019-02-11T16:14:42.635Z,30.27
2019-02-11T16:20:38.350Z,31.45
2019-02-11T16:26:49.482Z,18.45
2019-02-11T16:32:47.306Z,26.82
2019-02-11T16:38:56.939Z,33.13
2019-02-11T16:44:55.418Z,38.95
2019-02-11T16:51:06.190Z,47.70
2019-02-11T16:57:07.791Z,50.12
2019-02-11T17:03:08.521Z,45.85
2019-02-11T17:09:07.869Z,36.83
2019-02-11T17:15:06.414Z,36.93
2019-02-11T17:21:16.076Z,34.95
2019-02-11T17:27:12.866Z,36.83
2019-02-11T17:33:23.531Z,37.55
2019-02-11T17:39:21.035Z,36.75
2019-02-11T17:45:30.508Z,34.73
2019-02-11T17:51:29.915Z,35.58
2019-02-11T17:57:26.567Z,31.90
2019-02-11T18:03:10.694Z,32.15
2019-02-11T18:09:09.824Z,31.50
2019-02-11T18:15:05.343Z,31.15
2019-02-11T18:21:00.596Z,30.85
2019-02-11T18:26:46.688Z,29.48
2019-02-11T18:32:32.763Z,28.57
2019-02-11T18:38:54.892Z,25.72
2019-02-11T18:44:53.985Z,27.35
2019-02-11T18:50:49.714Z,23.98
2019-02-11T18:56:57.971Z,26.87
2019-02-11T19:02:44.057Z,26.75
2019-02-11T19:08:54.331Z,25.88
2019-02-11T19:14:50.553Z,24.65
2019-02-11T19:20:58.502Z,25.57
2019-02-11T19:26:55.735Z,24.67
2019-02-11T19:33:05.433Z,25.90
2019-02-11T19:38:52.842Z,25.23
2019-02-11T19:44:50.406Z,27.80
2019-02-11T19:50:59.027Z,27.58
2019-02-11T19:56:57.574Z,25.85
2019-02-11T20:03:08.270Z,27.40
2019-02-11T20:09:05.397Z,28.12
2019-02-11T20:15:04.833Z,29.60
2019-02-11T20:20:52.867Z,25.45
2019-02-11T20:26:50.063Z,28.60
2019-02-11T20:32:38.589Z,27.00
2019-02-11T20:38:34.294Z,25.35
2019-02-11T20:44:41.876Z,22.25
2019-02-11T20:50:37.681Z,25.12
2019-02-11T20:56:59.162Z,22.35
2019-02-11T21:02:55.516Z,23.25
2019-02-11T21:08:42.044Z,22.65
2019-02-11T21:14:36.763Z,26.12
2019-02-11T21:20:43.348Z,24.02
2019-02-11T21:26:40.917Z,25.88
2019-02-11T21:32:26.590Z,26.62
2019-02-11T21:38:24.097Z,3.87
2019-02-11T21:44:25.437Z,2.27
2019-02-11T21:50:44.175Z,2.20
2019-02-11T21:56:38.986Z,3.17
2019-02-11T22:02:48.464Z,4.85
2019-02-11T22:08:35.029Z,2.92
2019-02-11T22:14:45.444Z,2.10
2019-02-11T22:20:42.056Z,1.30
2019-02-11T22:27:01.735Z,1.77
2019-02-11T22:32:47.373Z,1.92
2019-02-11T22:38:44.732Z,2.37
2019-02-11T22:44:53.625Z,2.47
2019-02-11T22:50:56.212Z,1.80
2019-02-11T22:57:23.728Z,1.50
2019-02-11T23:03:21.483Z,2.65
2019-02-11T23:09:22.132Z,1.55
2019-02-11T23:15:19.446Z,1.77
2019-02-11T23:21:30.407Z,1.40
2019-02-11T23:27:27.652Z,1.45
2019-02-11T23:33:26.207Z,1.10
2019-02-11T23:39:22.760Z,1.20
2019-02-11T23:45:31.374Z,1.55
2019-02-11T23:51:30.207Z,1.20
2019-02-11T23:57:40.592Z,1.32
